TNX weather

Stung Treng Airport
Stung Treng, Stueng Traeng, Cambodia

Public forecast

Using degrees Celsius for public forecast. Weather courtesy of forecast.io.

METAR (pilot weather report)

Closest report is Pakse International Airport, 97.0 nm (179.7 km) N. Retrieved 2019/04/19 13:00 UTC (2 hours ago):

VLPS 191300Z 18002KT 9999 FEW020 SCT200 32/24 Q1007 NOSIG

TAF (pilot weather forecast)

Closest forecast is Pakse International Airport, 97.0 nm (179.7 km) N. Retrieved 2019/04/19 12:00 UTC (3 hours ago):

TAF VLPS 191100Z 1912/2012 14006KT 9999 SCT020 SCT200